createdAt,value
2017-12-23T00:01:52.676Z,22.50
2017-12-23T00:04:21.032Z,15.40
2017-12-23T00:06:49.385Z,23.47
2017-12-23T00:09:17.799Z,21.80
2017-12-23T00:11:46.275Z,21.67
2017-12-23T00:14:14.624Z,18.63
2017-12-23T00:16:42.959Z,16.97
2017-12-23T00:19:11.801Z,22.60
2017-12-23T00:21:40.159Z,21.53
2017-12-23T00:24:08.547Z,22.70
2017-12-23T00:26:36.915Z,24.37
2017-12-23T00:29:05.268Z,17.73
2017-12-23T00:31:34.032Z,23.20
2017-12-23T00:34:02.385Z,22.03
2017-12-23T00:36:30.749Z,20.13
2017-12-23T00:38:59.163Z,25.10
2017-12-23T00:41:27.508Z,33.87
2017-12-23T00:43:55.915Z,22.87
2017-12-23T00:46:24.267Z,14.67
2017-12-23T00:48:52.624Z,19.50
2017-12-23T00:51:21.039Z,21.87
2017-12-23T00:53:49.407Z,25.53
2017-12-23T00:56:17.797Z,19.97
2017-12-23T00:58:46.162Z,24.33
2017-12-23T01:01:14.533Z,25.83
2017-12-23T01:03:42.897Z,21.63
2017-12-23T01:06:11.740Z,18.47
2017-12-23T01:08:40.124Z,19.57
2017-12-23T01:11:08.472Z,21.83
2017-12-23T01:13:36.849Z,19.67
2017-12-23T01:16:05.280Z,21.57
2017-12-23T01:18:33.646Z,21.47
2017-12-23T01:21:02.004Z,19.03
2017-12-23T01:23:30.398Z,25.33
2017-12-23T01:25:58.754Z,18.57
2017-12-23T01:28:27.115Z,25.20
2017-12-23T01:30:55.472Z,23.33
2017-12-23T01:33:24.236Z,16.30
2017-12-23T01:35:53.393Z,27.90
2017-12-23T01:38:21.802Z,26.30
2017-12-23T01:40:50.167Z,25.27
2017-12-23T01:43:18.555Z,19.27
2017-12-23T01:45:46.935Z,17.70
2017-12-23T01:48:27.188Z,18.40
2017-12-23T01:50:55.551Z,19.87
2017-12-23T01:53:23.912Z,22.50
2017-12-23T01:55:52.332Z,30.77
2017-12-23T01:58:21.706Z,15.53
2017-12-23T02:00:50.065Z,15.70
2017-12-23T02:03:18.830Z,16.27
2017-12-23T02:05:47.285Z,18.97
2017-12-23T02:08:15.764Z,26.33
2017-12-23T02:10:44.127Z,15.47
2017-12-23T02:13:12.523Z,15.60
2017-12-23T02:15:40.888Z,18.20
2017-12-23T02:18:09.255Z,11.43
2017-12-23T02:20:38.426Z,32.73
2017-12-23T02:23:07.193Z,24.17
2017-12-23T02:25:35.589Z,22.77
2017-12-23T02:28:04.299Z,16.23
2017-12-23T02:30:32.683Z,18.83
2017-12-23T02:33:01.044Z,17.67
2017-12-23T02:35:29.441Z,21.40
2017-12-23T02:37:57.853Z,22.53
2017-12-23T02:40:26.211Z,26.53
2017-12-23T02:42:54.578Z,24.63
2017-12-23T02:45:22.982Z,25.13
2017-12-23T02:47:51.341Z,25.63
2017-12-23T02:50:19.716Z,25.60
2017-12-23T02:52:48.077Z,26.43
2017-12-23T02:55:16.832Z,20.70
2017-12-23T02:57:45.292Z,25.03
2017-12-23T03:00:13.655Z,28.20
2017-12-23T03:02:42.012Z,23.43
2017-12-23T03:05:10.374Z,25.00
2017-12-23T03:07:39.133Z,28.20
2017-12-23T03:10:07.495Z,27.57
2017-12-23T03:12:35.872Z,21.70
2017-12-23T03:15:04.225Z,25.87
2017-12-23T03:17:32.624Z,23.13
2017-12-23T03:20:00.993Z,27.00
2017-12-23T03:22:29.355Z,24.70
2017-12-23T03:24:57.712Z,30.43
2017-12-23T03:27:26.465Z,25.37
2017-12-23T03:29:54.835Z,23.73
2017-12-23T03:32:23.199Z,23.87
2017-12-23T03:34:51.608Z,21.73
2017-12-23T03:37:19.976Z,24.20
2017-12-23T03:39:48.347Z,19.50
2017-12-23T03:42:16.729Z,20.13
2017-12-23T03:44:45.086Z,19.87
2017-12-23T03:47:13.443Z,22.50
2017-12-23T03:49:41.799Z,25.00
2017-12-23T03:52:10.586Z,23.50
2017-12-23T03:54:38.940Z,18.83
2017-12-23T03:57:07.296Z,25.43
2017-12-23T03:59:35.665Z,18.60
2017-12-23T04:02:04.028Z,19.13
2017-12-23T04:04:32.392Z,15.03
2017-12-23T04:07:01.089Z,22.93
2017-12-23T04:09:29.492Z,16.90
2017-12-23T04:11:58.996Z,18.07
2017-12-23T04:14:27.359Z,18.43
2017-12-23T04:16:55.764Z,20.93
2017-12-23T04:19:24.136Z,25.77
2017-12-23T04:21:52.512Z,21.00
2017-12-23T04:24:20.869Z,25.20
2017-12-23T04:26:49.239Z,23.73
2017-12-23T04:29:17.616Z,20.87
2017-12-23T04:31:45.984Z,21.37
2017-12-23T04:34:14.331Z,20.70
2017-12-23T04:36:43.103Z,27.70
2017-12-23T04:39:11.472Z,24.90
2017-12-23T04:41:39.839Z,26.00
2017-12-23T04:44:08.315Z,21.17
2017-12-23T04:46:36.706Z,26.20
2017-12-23T04:49:05.152Z,24.80
2017-12-23T04:51:33.512Z,24.40
2017-12-23T04:54:02.258Z,20.50
2017-12-23T04:56:30.729Z,21.93
2017-12-23T04:58:59.098Z,21.67
2017-12-23T05:01:27.519Z,26.47
2017-12-23T05:03:56.071Z,21.37
2017-12-23T05:06:24.996Z,23.13
2017-12-23T05:08:53.357Z,22.63
2017-12-23T05:11:21.734Z,24.33
2017-12-23T05:13:50.093Z,28.43
2017-12-23T05:16:18.469Z,31.03
2017-12-23T05:18:46.921Z,15.07
2017-12-23T05:21:15.280Z,17.27
2017-12-23T05:23:44.076Z,20.60
2017-12-23T05:26:13.002Z,20.40
2017-12-23T05:28:41.388Z,21.53
2017-12-23T05:31:09.755Z,18.07
2017-12-23T05:33:38.115Z,24.80
2017-12-23T05:36:06.476Z,27.97
2017-12-23T05:38:34.894Z,22.83
2017-12-23T05:41:03.574Z,21.27
2017-12-23T05:43:31.981Z,24.70
2017-12-23T05:46:00.457Z,29.13
2017-12-23T05:48:28.820Z,27.97
2017-12-23T05:50:57.170Z,24.50
2017-12-23T05:53:25.589Z,34.13
2017-12-23T05:55:54.031Z,31.63
2017-12-23T05:58:22.401Z,35.07
2017-12-23T06:00:50.748Z,32.20
2017-12-23T06:03:19.126Z,30.50
2017-12-23T06:05:47.572Z,24.83
2017-12-23T06:08:15.934Z,32.67
2017-12-23T06:10:44.324Z,33.60
2017-12-23T06:13:12.693Z,43.67
2017-12-23T06:15:41.052Z,38.70
2017-12-23T06:18:09.465Z,44.43
2017-12-23T06:20:37.830Z,36.47
2017-12-23T06:23:06.176Z,34.93
2017-12-23T06:25:34.936Z,36.97
2017-12-23T06:28:03.444Z,43.30
2017-12-23T06:30:32.203Z,48.07
2017-12-23T06:33:01.725Z,34.93
2017-12-23T06:35:30.901Z,41.10
2017-12-23T06:37:59.252Z,41.73
2017-12-23T06:40:27.616Z,49.00
2017-12-23T06:42:55.993Z,43.93
2017-12-23T06:45:24.353Z,51.87
2017-12-23T06:47:52.728Z,53.30
2017-12-23T06:50:21.476Z,48.27
2017-12-23T06:52:49.839Z,49.90
2017-12-23T06:55:18.272Z,44.13
2017-12-23T06:57:47.016Z,50.33
2017-12-23T07:00:15.384Z,41.97
2017-12-23T07:02:43.764Z,55.30
2017-12-23T07:05:12.141Z,45.20
2017-12-23T07:07:40.486Z,50.80
2017-12-23T07:10:08.839Z,56.83
2017-12-23T07:12:37.596Z,55.00
2017-12-23T07:15:05.947Z,50.50
2017-12-23T07:17:34.330Z,54.23
2017-12-23T07:20:02.685Z,52.87
2017-12-23T07:22:31.061Z,45.83
2017-12-23T07:24:59.408Z,54.47
2017-12-23T07:27:27.871Z,46.53
2017-12-23T07:29:56.242Z,45.27
2017-12-23T07:32:24.597Z,41.63
2017-12-23T07:34:52.944Z,46.77
2017-12-23T07:37:21.708Z,49.30
2017-12-23T07:39:50.177Z,45.50
2017-12-23T07:42:18.552Z,45.20
2017-12-23T07:44:46.908Z,43.80
2017-12-23T07:47:15.332Z,39.90
2017-12-23T07:49:43.662Z,41.40
2017-12-23T07:52:12.020Z,37.40
2017-12-23T07:54:40.377Z,37.90
2017-12-23T07:57:08.839Z,44.53
2017-12-23T07:59:37.308Z,38.37
2017-12-23T08:02:05.676Z,37.90
2017-12-23T08:04:34.043Z,45.03
2017-12-23T08:07:02.436Z,43.13
2017-12-23T08:09:30.821Z,35.50
2017-12-23T08:11:59.177Z,34.70
2017-12-23T08:14:27.532Z,32.67
2017-12-23T08:16:55.958Z,39.07
2017-12-23T08:19:24.428Z,40.47
2017-12-23T08:21:52.788Z,35.23
2017-12-23T08:24:21.146Z,32.20
2017-12-23T08:26:49.916Z,31.27
2017-12-23T08:29:18.274Z,32.67
2017-12-23T08:31:46.632Z,28.07
2017-12-23T08:34:16.036Z,30.17
2017-12-23T08:36:44.407Z,33.70
2017-12-23T08:39:12.817Z,26.30
2017-12-23T08:41:41.168Z,34.00
2017-12-23T08:44:09.524Z,31.00
2017-12-23T08:46:38.544Z,30.97
2017-12-23T08:49:06.901Z,30.87
2017-12-23T08:51:35.319Z,30.93
2017-12-23T08:54:03.702Z,26.67
2017-12-23T08:56:32.163Z,36.87
2017-12-23T08:59:00.531Z,31.83
2017-12-23T09:01:28.895Z,29.07
2017-12-23T09:03:57.257Z,29.23
2017-12-23T09:06:25.688Z,38.20
2017-12-23T09:08:54.048Z,30.30
2017-12-23T09:11:22.416Z,29.40
2017-12-23T09:13:50.780Z,32.83
2017-12-23T09:16:19.205Z,32.43
2017-12-23T09:18:47.563Z,28.70
2017-12-23T09:21:15.915Z,33.13
2017-12-23T09:23:44.333Z,31.97
2017-12-23T09:26:12.689Z,32.90
2017-12-23T09:28:41.054Z,29.57
2017-12-23T09:31:09.468Z,33.07
2017-12-23T09:33:37.843Z,34.73
2017-12-23T09:36:06.332Z,42.20
2017-12-23T09:38:34.710Z,28.47
2017-12-23T09:41:03.079Z,28.73
2017-12-23T09:43:31.448Z,30.90
2017-12-23T09:45:59.829Z,36.00
2017-12-23T09:48:28.229Z,28.50
2017-12-23T09:50:56.591Z,32.13
2017-12-23T09:53:24.960Z,35.40
2017-12-23T09:55:53.314Z,29.43
2017-12-23T09:58:21.724Z,27.23
2017-12-23T10:00:50.116Z,28.03
2017-12-23T10:03:18.489Z,25.87
2017-12-23T10:05:46.865Z,24.93
2017-12-23T10:08:15.267Z,25.00
2017-12-23T10:10:43.636Z,22.60
2017-12-23T10:13:12.004Z,23.33
2017-12-23T10:15:40.384Z,21.60
2017-12-23T10:18:08.744Z,18.40
2017-12-23T10:20:37.107Z,19.40
2017-12-23T10:23:05.456Z,28.60
2017-12-23T10:25:33.911Z,14.60
2017-12-23T10:28:02.288Z,14.13
2017-12-23T10:30:30.667Z,18.83
2017-12-23T10:32:59.050Z,13.50
2017-12-23T10:35:27.413Z,16.33
2017-12-23T10:37:55.794Z,11.60
2017-12-23T10:40:24.156Z,11.37
2017-12-23T10:42:52.550Z,12.60
2017-12-23T10:45:20.899Z,9.43
2017-12-23T10:47:49.280Z,10.27
2017-12-23T10:50:17.698Z,9.03
2017-12-23T10:52:46.056Z,10.03
2017-12-23T10:55:14.420Z,10.37
2017-12-23T10:57:42.822Z,8.80
2017-12-23T11:00:11.194Z,9.33
2017-12-23T11:02:39.545Z,8.20
2017-12-23T11:05:07.965Z,8.60
2017-12-23T11:07:36.309Z,8.40
2017-12-23T11:10:04.656Z,8.33
2017-12-23T11:12:33.101Z,6.47
2017-12-23T11:15:01.460Z,7.07
2017-12-23T11:17:29.835Z,5.73
2017-12-23T11:19:58.233Z,6.97
2017-12-23T11:22:26.591Z,5.90
2017-12-23T11:24:54.955Z,10.10
2017-12-23T11:27:23.382Z,6.67
2017-12-23T11:29:51.727Z,6.57
2017-12-23T11:32:20.075Z,6.73
2017-12-23T11:34:48.853Z,5.77
2017-12-23T11:37:17.225Z,7.23
2017-12-23T11:39:45.596Z,5.40
2017-12-23T11:42:14.068Z,5.60
2017-12-23T11:44:42.428Z,7.17
2017-12-23T11:47:10.784Z,6.00
2017-12-23T11:49:39.148Z,4.80
2017-12-23T11:52:08.436Z,5.33
2017-12-23T11:54:37.294Z,5.07
2017-12-23T11:57:05.653Z,4.07
2017-12-23T11:59:34.041Z,4.43
2017-12-23T12:02:02.417Z,4.60
2017-12-23T12:04:30.839Z,5.13
2017-12-23T12:06:59.140Z,4.13
2017-12-23T12:09:27.500Z,4.60
2017-12-23T12:11:56.352Z,4.17
2017-12-23T12:14:24.829Z,5.43
2017-12-23T12:16:53.211Z,5.30
2017-12-23T12:19:21.656Z,4.17
2017-12-23T12:21:49.999Z,4.73
2017-12-23T12:24:18.748Z,4.67
2017-12-23T12:26:47.130Z,4.97
2017-12-23T12:29:15.500Z,4.60
2017-12-23T12:31:43.882Z,4.10
2017-12-23T12:34:12.233Z,5.97
2017-12-23T12:36:40.587Z,5.20
2017-12-23T12:39:10.168Z,4.47
2017-12-23T12:41:38.540Z,4.83
2017-12-23T12:44:06.915Z,8.40
2017-12-23T12:46:35.285Z,4.80
2017-12-23T12:49:03.651Z,4.77
2017-12-23T12:51:32.032Z,21.13
2017-12-23T12:54:00.398Z,4.77
2017-12-23T12:56:29.723Z,5.20
2017-12-23T12:58:58.090Z,7.90
2017-12-23T13:01:26.468Z,5.17
2017-12-23T13:03:54.825Z,6.50
2017-12-23T13:06:23.203Z,6.13
2017-12-23T13:08:51.557Z,6.30
2017-12-23T13:11:20.335Z,6.13
2017-12-23T13:13:49.205Z,7.00
2017-12-23T13:16:17.587Z,7.60
2017-12-23T13:18:46.048Z,6.63
2017-12-23T13:21:14.416Z,10.00
2017-12-23T13:23:42.800Z,6.70
2017-12-23T13:26:11.155Z,7.03
2017-12-23T13:28:39.568Z,7.57
2017-12-23T13:31:07.928Z,6.67
2017-12-23T13:33:36.292Z,5.73
2017-12-23T13:36:04.660Z,7.67
2017-12-23T13:38:33.106Z,6.50
2017-12-23T13:41:01.558Z,6.73
2017-12-23T13:43:29.925Z,6.53
2017-12-23T13:45:58.312Z,10.43
2017-12-23T13:48:26.675Z,5.60
2017-12-23T13:50:55.037Z,6.50
2017-12-23T13:53:23.481Z,6.50
2017-12-23T13:55:51.832Z,6.60
2017-12-23T13:58:20.201Z,5.77
2017-12-23T14:00:48.560Z,7.40
2017-12-23T14:03:16.979Z,9.33
2017-12-23T14:05:45.336Z,7.53
2017-12-23T14:08:13.734Z,10.83
2017-12-23T14:10:42.103Z,11.73
2017-12-23T14:13:10.461Z,10.17
2017-12-23T14:15:38.836Z,9.07
2017-12-23T14:18:07.201Z,13.60
2017-12-23T14:20:37.163Z,8.43
2017-12-23T14:23:05.524Z,10.20
2017-12-23T14:25:33.904Z,15.80
2017-12-23T14:28:02.265Z,8.50
2017-12-23T14:30:30.621Z,9.67
2017-12-23T14:32:59.391Z,8.77
2017-12-23T14:35:28.143Z,14.53
2017-12-23T14:37:56.520Z,11.70
2017-12-23T14:40:24.878Z,19.27
2017-12-23T14:42:54.217Z,13.57
2017-12-23T14:45:22.689Z,14.70
2017-12-23T14:47:51.045Z,17.03
2017-12-23T14:50:19.460Z,18.50
2017-12-23T14:52:47.823Z,23.87
2017-12-23T14:55:16.296Z,26.57
2017-12-23T14:57:44.675Z,18.83
2017-12-23T15:00:13.489Z,19.17
2017-12-23T15:02:41.840Z,17.17
2017-12-23T15:05:10.189Z,21.60
2017-12-23T15:07:38.611Z,18.83
2017-12-23T15:10:07.059Z,20.90
2017-12-23T15:12:35.562Z,20.97
2017-12-23T15:15:03.917Z,20.07
2017-12-23T15:17:32.322Z,21.20
2017-12-23T15:20:00.703Z,35.30
2017-12-23T15:22:29.073Z,24.60
2017-12-23T15:24:57.449Z,28.23
2017-12-23T15:27:25.821Z,27.37
2017-12-23T15:29:54.219Z,30.27
2017-12-23T15:32:22.575Z,33.63
2017-12-23T15:34:50.944Z,32.17
2017-12-23T15:37:19.367Z,32.43
2017-12-23T15:39:47.727Z,35.50
2017-12-23T15:42:16.097Z,35.40
2017-12-23T15:44:44.472Z,46.10
2017-12-23T15:47:12.852Z,47.80
2017-12-23T15:49:41.232Z,42.17
2017-12-23T15:52:09.612Z,43.53
2017-12-23T15:54:37.979Z,59.40
2017-12-23T15:57:06.336Z,47.93
2017-12-23T15:59:35.110Z,52.60
2017-12-23T16:02:03.964Z,48.33
2017-12-23T16:04:32.436Z,51.00
2017-12-23T16:07:00.850Z,51.47
2017-12-23T16:09:29.305Z,47.93
2017-12-23T16:11:57.661Z,57.27
2017-12-23T16:14:26.025Z,58.50
2017-12-23T16:16:54.396Z,50.87
2017-12-23T16:19:22.777Z,44.80
2017-12-23T16:21:51.146Z,59.23
2017-12-23T16:24:19.980Z,59.87
2017-12-23T16:26:48.339Z,54.10
2017-12-23T16:29:16.744Z,63.40
2017-12-23T16:31:45.220Z,71.03
2017-12-23T16:34:13.678Z,58.67
2017-12-23T16:36:42.046Z,58.30
2017-12-23T16:39:10.413Z,57.00
2017-12-23T16:41:38.822Z,67.90
2017-12-23T16:44:07.216Z,67.40
2017-12-23T16:46:35.577Z,60.80
2017-12-23T16:49:04.050Z,62.50
2017-12-23T16:51:32.444Z,67.00
2017-12-23T16:54:00.835Z,57.53
2017-12-23T16:56:29.236Z,65.60
2017-12-23T16:58:57.656Z,69.90
2017-12-23T17:01:26.067Z,70.73
2017-12-23T17:03:54.556Z,74.33
2017-12-23T17:06:22.971Z,75.43
2017-12-23T17:08:51.309Z,79.27
2017-12-23T17:11:19.697Z,66.90
2017-12-23T17:13:48.179Z,75.03
2017-12-23T17:16:16.535Z,67.10
2017-12-23T17:18:44.896Z,74.10
2017-12-23T17:21:13.269Z,73.30
2017-12-23T17:23:41.663Z,70.50
2017-12-23T17:26:10.039Z,63.27
2017-12-23T17:28:56.265Z,68.93
2017-12-23T17:31:24.648Z,66.30
2017-12-23T17:33:53.022Z,65.20
2017-12-23T17:36:21.394Z,64.30
2017-12-23T17:38:49.749Z,65.43
2017-12-23T17:41:18.113Z,72.17
2017-12-23T17:43:46.487Z,65.73
2017-12-23T17:46:15.233Z,61.80
2017-12-23T17:48:43.600Z,66.20
2017-12-23T17:51:11.956Z,59.87
2017-12-23T17:53:40.352Z,61.77
2017-12-23T17:56:08.722Z,66.03
2017-12-23T17:58:37.121Z,65.03
2017-12-23T18:01:05.499Z,70.10
2017-12-23T18:03:33.871Z,71.43
2017-12-23T18:06:02.304Z,69.60
2017-12-23T18:08:31.050Z,68.23
2017-12-23T18:10:59.422Z,69.13
2017-12-23T18:13:27.797Z,74.60
2017-12-23T18:15:56.258Z,75.37
2017-12-23T18:18:24.669Z,64.57
2017-12-23T18:20:53.044Z,72.70
2017-12-23T18:23:21.523Z,62.03
2017-12-23T18:25:49.892Z,61.73
2017-12-23T18:28:18.251Z,68.70
2017-12-23T18:30:46.620Z,56.23
2017-12-23T18:33:14.995Z,60.83
2017-12-23T18:35:43.387Z,62.40
2017-12-23T18:38:11.780Z,53.53
2017-12-23T18:40:40.226Z,58.23
2017-12-23T18:43:09.077Z,57.67
2017-12-23T18:45:37.432Z,59.73
2017-12-23T18:48:05.804Z,52.23
2017-12-23T18:50:34.176Z,48.90
2017-12-23T18:53:02.543Z,50.27
2017-12-23T18:55:30.922Z,53.83
2017-12-23T18:57:59.414Z,48.93
2017-12-23T19:00:27.792Z,48.23
2017-12-23T19:02:56.157Z,45.77
2017-12-23T19:05:24.520Z,52.43
2017-12-23T19:07:53.268Z,46.40
2017-12-23T19:10:21.731Z,43.03
2017-12-23T19:12:50.084Z,43.37
2017-12-23T19:15:18.501Z,40.23
2017-12-23T19:17:46.828Z,42.23
2017-12-23T19:20:15.666Z,39.47
2017-12-23T19:22:44.027Z,39.70
2017-12-23T19:25:12.401Z,39.70
2017-12-23T19:27:40.800Z,39.70
2017-12-23T19:30:09.184Z,36.40
2017-12-23T19:32:37.544Z,36.37
2017-12-23T19:35:05.944Z,39.50
2017-12-23T19:37:34.403Z,42.53
2017-12-23T19:40:02.792Z,37.03
2017-12-23T19:42:31.151Z,36.60
2017-12-23T19:44:59.551Z,38.03
2017-12-23T19:47:27.908Z,42.67
2017-12-23T19:49:56.273Z,41.70
2017-12-23T19:52:24.631Z,37.10
2017-12-23T19:54:53.382Z,33.40
2017-12-23T19:57:21.764Z,32.97
2017-12-23T19:59:50.177Z,30.10
2017-12-23T20:02:18.955Z,32.00
2017-12-23T20:04:47.307Z,32.67
2017-12-23T20:07:15.672Z,26.50
2017-12-23T20:09:44.039Z,32.33
2017-12-23T20:12:12.529Z,32.73
2017-12-23T20:14:40.906Z,31.63
2017-12-23T20:17:09.268Z,28.20
2017-12-23T20:19:37.665Z,37.47
2017-12-23T20:22:06.029Z,31.90
2017-12-23T20:24:34.379Z,28.03
2017-12-23T20:27:03.135Z,32.20
2017-12-23T20:29:31.612Z,25.63
2017-12-23T20:32:00.032Z,29.60
2017-12-23T20:34:28.475Z,28.00
2017-12-23T20:36:56.833Z,23.30
2017-12-23T20:39:25.186Z,23.93
2017-12-23T20:41:53.549Z,29.83
2017-12-23T20:44:22.312Z,27.07
2017-12-23T20:46:50.691Z,24.17
2017-12-23T20:49:19.149Z,29.37
2017-12-23T20:51:47.561Z,25.70
2017-12-23T20:54:16.420Z,31.60
2017-12-23T20:56:44.781Z,21.20
2017-12-23T20:59:13.184Z,25.07
2017-12-23T21:01:41.574Z,21.23
2017-12-23T21:04:10.040Z,22.27
2017-12-23T21:06:38.408Z,22.83
2017-12-23T21:09:06.786Z,24.90
2017-12-23T21:11:35.162Z,24.57
2017-12-23T21:14:03.522Z,21.77
2017-12-23T21:16:31.884Z,27.00
2017-12-23T21:19:00.237Z,22.03
2017-12-23T21:21:29.163Z,21.47
2017-12-23T21:23:57.530Z,26.20
2017-12-23T21:26:25.896Z,18.73
2017-12-23T21:28:54.732Z,24.53
2017-12-23T21:31:23.604Z,30.30
2017-12-23T21:33:51.956Z,25.93
2017-12-23T21:36:20.791Z,26.10
2017-12-23T21:38:49.172Z,23.47
2017-12-23T21:41:17.531Z,20.40
2017-12-23T21:43:45.942Z,22.80
2017-12-23T21:46:14.307Z,28.03
2017-12-23T21:48:42.684Z,26.30
2017-12-23T21:51:11.064Z,21.53
2017-12-23T21:53:39.432Z,23.43
2017-12-23T21:56:07.828Z,25.80
2017-12-23T21:58:36.291Z,25.27
2017-12-23T22:01:04.655Z,27.17
2017-12-23T22:03:33.021Z,23.83
2017-12-23T22:06:01.392Z,29.10
2017-12-23T22:08:30.156Z,25.60
2017-12-23T22:10:58.516Z,27.60
2017-12-23T22:13:26.888Z,27.10
2017-12-23T22:15:55.248Z,27.27
2017-12-23T22:18:23.615Z,30.00
2017-12-23T22:20:51.968Z,25.87
2017-12-23T22:23:20.736Z,27.53
2017-12-23T22:25:49.136Z,27.43
2017-12-23T22:28:17.883Z,26.73
2017-12-23T22:30:46.264Z,31.33
2017-12-23T22:33:14.624Z,28.50
2017-12-23T22:35:43.016Z,31.13
2017-12-23T22:38:11.372Z,31.60
2017-12-23T22:40:40.608Z,34.00
2017-12-23T22:43:08.996Z,33.30
2017-12-23T22:45:37.401Z,31.33
2017-12-23T22:48:06.535Z,31.80
2017-12-23T22:50:34.927Z,37.33
2017-12-23T22:53:03.293Z,35.03
2017-12-23T22:55:31.646Z,35.33
2017-12-23T22:58:00.021Z,37.03
2017-12-23T23:00:28.431Z,42.70
2017-12-23T23:02:56.783Z,35.27
2017-12-23T23:05:25.148Z,39.17
2017-12-23T23:07:53.507Z,37.67
2017-12-23T23:10:22.277Z,37.60
2017-12-23T23:12:50.632Z,32.70
2017-12-23T23:15:19.125Z,34.50
2017-12-23T23:17:47.483Z,39.10
2017-12-23T23:20:15.845Z,39.23
2017-12-23T23:22:44.207Z,41.33
2017-12-23T23:25:13.050Z,38.80
2017-12-23T23:27:41.425Z,43.70
2017-12-23T23:30:09.775Z,39.80
2017-12-23T23:32:38.176Z,41.47
2017-12-23T23:35:06.532Z,44.37
2017-12-23T23:37:34.932Z,44.30
2017-12-23T23:40:03.340Z,46.47
2017-12-23T23:42:31.707Z,43.43
2017-12-23T23:45:00.071Z,39.30
2017-12-23T23:47:28.472Z,42.90
2017-12-23T23:49:56.973Z,43.00
2017-12-23T23:52:26.833Z,41.63
2017-12-23T23:54:55.200Z,49.57
2017-12-23T23:57:23.560Z,44.87
2017-12-23T23:59:51.924Z,43.63
